»·PEaware :: SWA671 KLAS-KLGB

SWA671 :: KLAS-KLGB

FLIGHT INFORMATION

Flight Status: Arrived
Operator:
Southwest Airlines
More flights by this operator :: More flights under this callsign
Pilot: Dominic B. (18944)
Aircraft: BOEING 737-700
(B737)
More flights by this aircraft type
Origin: KLAS Harry Reid Intl
United States
Destination: KLGB Long Beach
United States
More flights between these airports :: More routes between these airports
Route: RADYR2 SLVRR FEYLA DSNEE5
File this flight plan on PilotEdge
Remarks: RMK / SIMBRIEF
Altitude:
(Current/Filed)
28,000ft
Speed:
(Current/Filed)
454kts
Departed: 02-Jan-22 02:11 PM
Arrived: 02-Jan-22 02:57 PM
Distance/Time
Traveled:
200nm/0:46
Distance/Time
To Go:
Arrived

Flight Plot

Page will automatically refresh every two minutes.

Flight plan parsing failed; only flown route is shown


Map Options




Map Legend


Flown Route
Filed Route
Departure Airport
Arrival Airport
Navaid (VOR, NDB)
Fix

Horizontal Profiles

Position Reports

Time Latitude Longitude Heading Altitude Ground
Speed
02-Jan-22 13:42 36.082012 -115.148380 65 2187ft 0kts
02-Jan-22 13:43 36.082012 -115.148380 65 2187ft 0kts
02-Jan-22 13:44 36.082012 -115.148380 65 2187ft 0kts
02-Jan-22 13:45 36.082012 -115.148380 65 2187ft 0kts
02-Jan-22 13:46 36.082012 -115.148380 65 2187ft 0kts
02-Jan-22 13:47 36.082012 -115.148380 65 2187ft 0kts
02-Jan-22 13:48 36.082012 -115.148380 65 2187ft 0kts
02-Jan-22 13:49 36.082012 -115.148380 65 2187ft 0kts
02-Jan-22 13:50 36.082012 -115.148380 65 2187ft 0kts
02-Jan-22 13:51 36.082012 -115.148380 65 2187ft 0kts
02-Jan-22 13:52 36.082012 -115.148380 65 2187ft 0kts
02-Jan-22 13:53 36.082012 -115.148380 65 2187ft 0kts
02-Jan-22 13:54 36.082012 -115.148380 65 2187ft 0kts
02-Jan-22 13:55 36.082012 -115.148380 65 2187ft 0kts
02-Jan-22 13:56 36.082012 -115.148380 65 2187ft 0kts
02-Jan-22 13:57 36.082012 -115.148380 65 2187ft 0kts
02-Jan-22 13:58 36.082008 -115.148390 65 2187ft 1kts
02-Jan-22 13:59 36.081897 -115.149004 149 2187ft 0kts
02-Jan-22 14:00 36.081975 -115.149043 155 2187ft 0kts
02-Jan-22 14:01 36.081975 -115.149043 155 2187ft 0kts
02-Jan-22 14:02 36.081975 -115.149043 155 2187ft 0kts
02-Jan-22 14:03 36.081610 -115.149086 216 2187ft 7kts
02-Jan-22 14:04 36.080986 -115.152521 283 2187ft 9kts
02-Jan-22 14:05 36.081231 -115.153757 284 2187ft 2kts
02-Jan-22 14:06 36.079214 -115.153563 155 2187ft 15kts
02-Jan-22 14:07 36.078054 -115.156800 270 2187ft 10kts
02-Jan-22 14:08 36.078033 -115.160528 268 2187ft 12kts
02-Jan-22 14:09 36.076618 -115.161282 176 2187ft 12kts
02-Jan-22 14:10 36.076345 -115.130991 88 2441ft 151kts
02-Jan-22 14:11 36.074895 -115.072959 101 3736ft 204kts
02-Jan-22 14:12 36.062239 -114.991028 101 5706ft 263kts
02-Jan-22 14:13 36.036462 -114.904442 145 8414ft 282kts
02-Jan-22 14:14 35.964847 -114.909827 226 11272ft 274kts
02-Jan-22 14:15 35.908447 -114.988223 229 13916ft 290kts
02-Jan-22 14:16 35.847797 -115.070053 229 15292ft 339kts
02-Jan-22 14:17 35.782615 -115.158101 229 17655ft 350kts
02-Jan-22 14:18 35.715868 -115.248081 230 19830ft 360kts
02-Jan-22 14:19 35.647198 -115.340418 230 21809ft 370kts
02-Jan-22 14:20 35.575084 -115.437105 230 23626ft 380kts
02-Jan-22 14:21 35.502610 -115.533998 230 25250ft 390kts
02-Jan-22 14:22 35.427636 -115.633939 230 26749ft 399kts
02-Jan-22 14:23 35.351018 -115.735702 230 28126ft 408kts
02-Jan-22 14:24 35.273013 -115.839765 230 28374ft 421kts
02-Jan-22 14:25 35.192326 -115.945312 228 28375ft 425kts
02-Jan-22 14:26 35.109779 -116.049117 228 28373ft 425kts
02-Jan-22 14:27 35.027124 -116.152946 228 28373ft 425kts
02-Jan-22 14:28 34.944453 -116.256544 228 28371ft 425kts
02-Jan-22 14:29 34.861782 -116.360269 229 28371ft 424kts
02-Jan-22 14:30 34.780039 -116.464519 229 28371ft 424kts
02-Jan-22 14:31 34.700546 -116.565165 227 26839ft 390kts
02-Jan-22 14:32 34.619709 -116.646892 222 24705ft 374kts
02-Jan-22 14:33 34.539491 -116.725156 221 22431ft 361kts
02-Jan-22 14:34 34.465140 -116.804144 226 20307ft 350kts
02-Jan-22 14:35 34.395965 -116.885102 226 18215ft 345kts
02-Jan-22 14:36 34.328617 -116.963165 225 15893ft 333kts
02-Jan-22 14:37 34.260999 -117.036035 216 14025ft 323kts
02-Jan-22 14:38 34.183944 -117.093465 212 13381ft 325kts
02-Jan-22 14:39 34.102054 -117.139642 206 13013ft 325kts
02-Jan-22 14:40 34.019796 -117.183692 206 12855ft 310kts
02-Jan-22 14:41 33.955678 -117.252677 230 10870ft 307kts
02-Jan-22 14:42 33.903611 -117.326591 230 10025ft 273kts
02-Jan-22 14:43 33.857039 -117.392533 229 8907ft 253kts
02-Jan-22 14:44 33.814720 -117.458940 247 7992ft 237kts
02-Jan-22 14:45 33.791783 -117.533924 250 7974ft 238kts
02-Jan-22 14:46 33.768759 -117.609405 250 7557ft 241kts
02-Jan-22 14:47 33.746216 -117.684553 249 6455ft 238kts
02-Jan-22 14:48 33.724038 -117.759437 250 5349ft 243kts
02-Jan-22 14:49 33.701804 -117.834892 250 4221ft 237kts
02-Jan-22 14:50 33.680435 -117.905272 250 3982ft 214kts
02-Jan-22 14:51 33.683514 -117.970475 306 3974ft 214kts
02-Jan-22 14:52 33.715037 -118.028246 316 2765ft 208kts
02-Jan-22 14:53 33.754162 -118.074566 314 1709ft 162kts
02-Jan-22 14:54 33.782694 -118.108985 315 881ft 142kts
02-Jan-22 14:55 33.810237 -118.142224 314 122ft 135kts
02-Jan-22 14:56 33.821626 -118.154587 90 69ft 6kts
02-Jan-22 14:57 33.821624 -118.153702 90 69ft 7kts
02-Jan-22 14:58 33.821619 -118.150080 90 69ft 9kts
02-Jan-22 14:59 33.821428 -118.146852 112 69ft 7kts

Navigation Log

Ident Type
Flight plan parsing failed, navigation log unavailable